createdAt,value
2019-02-10T00:00:17.990Z,22.25
2019-02-10T00:05:26.786Z,23.25
2019-02-10T00:10:31.253Z,22.00
2019-02-10T00:15:40.014Z,21.50
2019-02-10T00:20:46.358Z,22.00
2019-02-10T00:25:52.714Z,20.88
2019-02-10T00:30:58.907Z,21.87
2019-02-10T00:36:05.267Z,22.00
2019-02-10T00:41:09.074Z,21.00
2019-02-10T00:46:16.991Z,18.00
2019-02-10T00:51:27.225Z,18.00
2019-02-10T00:56:30.792Z,19.00
2019-02-10T01:01:39.442Z,20.25
2019-02-10T01:06:45.865Z,19.37
2019-02-10T01:11:51.918Z,20.37
2019-02-10T01:16:58.259Z,18.00
2019-02-10T01:22:04.595Z,17.25
2019-02-10T01:27:08.290Z,16.50
2019-02-10T01:32:13.763Z,18.25
2019-02-10T01:37:20.111Z,16.25
2019-02-10T01:42:23.839Z,20.00
2019-02-10T01:47:30.215Z,22.25
2019-02-10T01:52:35.416Z,22.75
2019-02-10T01:57:41.073Z,21.50
2019-02-10T02:02:47.983Z,22.78
2019-02-10T02:07:51.954Z,18.00
2019-02-10T02:12:56.339Z,22.50
2019-02-10T02:18:02.632Z,19.37
2019-02-10T02:23:10.556Z,19.75
2019-02-10T02:28:16.879Z,20.50
2019-02-10T02:33:21.203Z,20.00
2019-02-10T02:38:26.752Z,20.00
2019-02-10T02:43:31.116Z,19.50
2019-02-10T02:48:37.131Z,18.00
2019-02-10T02:53:44.898Z,18.12
2019-02-10T02:58:49.241Z,23.00
2019-02-10T03:03:55.258Z,19.75
2019-02-10T03:08:59.765Z,25.00
2019-02-10T03:14:08.288Z,23.87
2019-02-10T03:19:16.934Z,24.00
2019-02-10T03:24:21.728Z,26.25
2019-02-10T03:29:28.104Z,22.56
2019-02-10T03:34:35.264Z,23.25
2019-02-10T03:39:43.831Z,24.00
2019-02-10T03:44:47.660Z,22.00
2019-02-10T03:49:56.372Z,24.50
2019-02-10T03:55:04.048Z,21.00
2019-02-10T04:00:12.930Z,24.75
2019-02-10T04:05:17.336Z,21.50
2019-02-10T04:10:23.619Z,21.75
2019-02-10T04:15:28.075Z,24.00
2019-02-10T04:20:36.180Z,22.62
2019-02-10T04:25:40.710Z,24.00
2019-02-10T04:30:44.461Z,23.00
2019-02-10T04:35:51.579Z,23.44
2019-02-10T04:40:55.999Z,21.00
2019-02-10T04:46:04.678Z,25.37
2019-02-10T04:51:13.286Z,19.50
2019-02-10T04:56:18.054Z,22.75
2019-02-10T05:01:23.719Z,23.00
2019-02-10T05:06:28.259Z,21.50
2019-02-10T05:11:31.926Z,23.00
2019-02-10T05:16:40.060Z,23.00
2019-02-10T05:21:47.054Z,19.37
2019-02-10T05:26:52.883Z,20.00
2019-02-10T05:31:59.311Z,18.00
2019-02-10T05:37:04.863Z,18.00
2019-02-10T05:42:11.131Z,19.62
2019-02-10T05:47:15.816Z,24.00
2019-02-10T05:52:23.807Z,20.37
2019-02-10T05:57:28.504Z,20.00
2019-02-10T06:02:37.430Z,18.75
2019-02-10T06:07:45.694Z,17.12
2019-02-10T06:12:53.915Z,19.12
2019-02-10T06:17:58.531Z,24.00
2019-02-10T06:23:06.416Z,20.25
2019-02-10T06:28:10.117Z,22.00
2019-02-10T06:33:14.559Z,20.75
2019-02-10T06:38:22.485Z,21.50
2019-02-10T06:43:28.570Z,21.25
2019-02-10T06:48:37.191Z,20.00
2019-02-10T06:53:45.750Z,22.00
2019-02-10T06:58:49.415Z,21.00
2019-02-10T07:03:55.168Z,20.00
2019-02-10T07:08:58.465Z,21.00
2019-02-10T07:14:08.732Z,25.50
2019-02-10T07:19:32.546Z,20.75
2019-02-10T07:24:45.506Z,22.00
2019-02-10T07:29:55.057Z,19.29
2019-02-10T07:35:19.447Z,18.50
2019-02-10T07:40:35.984Z,20.27
2019-02-10T07:45:49.774Z,20.75
2019-02-10T07:51:00.351Z,18.37
2019-02-10T07:56:25.513Z,18.25
2019-02-10T08:01:37.426Z,25.75
2019-02-10T08:06:50.511Z,26.37
2019-02-10T08:12:04.002Z,21.25
2019-02-10T08:17:19.330Z,13.29
2019-02-10T08:22:29.217Z,19.12
2019-02-10T08:27:36.521Z,21.50
2019-02-10T08:32:48.558Z,20.00
2019-02-10T08:37:54.224Z,18.60
2019-02-10T08:43:13.202Z,16.57
2019-02-10T08:48:30.266Z,16.82
2019-02-10T08:53:35.267Z,18.57
2019-02-10T08:58:39.306Z,20.00
2019-02-10T09:03:45.078Z,19.00
2019-02-10T09:08:51.623Z,19.00
2019-02-10T09:13:56.571Z,17.71
2019-02-10T09:19:00.514Z,20.00
2019-02-10T09:24:05.547Z,17.29
2019-02-10T09:29:12.285Z,18.00
2019-02-10T09:34:16.331Z,19.00
2019-02-10T09:39:21.507Z,18.14
2019-02-10T09:44:24.483Z,16.00
2019-02-10T09:49:30.967Z,17.37
2019-02-10T09:54:34.238Z,16.50
2019-02-10T09:59:39.196Z,14.43
2019-02-10T10:04:46.447Z,16.00
2019-02-10T10:09:52.154Z,15.71
2019-02-10T10:14:58.391Z,17.86
2019-02-10T10:20:02.501Z,14.20
2019-02-10T10:25:08.963Z,17.00
2019-02-10T10:30:17.048Z,19.25
2019-02-10T10:35:20.008Z,17.33
2019-02-10T10:40:25.663Z,17.71
2019-02-10T10:45:33.056Z,16.75
2019-02-10T10:50:38.774Z,23.62
2019-02-10T10:55:45.455Z,18.00
2019-02-10T11:00:52.178Z,16.25
2019-02-10T11:05:59.210Z,14.14
2019-02-10T11:11:07.856Z,22.60
2019-02-10T11:16:15.326Z,15.00
2019-02-10T11:21:21.050Z,13.14
2019-02-10T11:26:26.592Z,12.71
2019-02-10T11:31:30.355Z,12.00
2019-02-10T11:36:35.798Z,10.33
2019-02-10T11:41:40.906Z,10.71
2019-02-10T11:46:45.251Z,13.71
2019-02-10T11:51:52.938Z,12.50
2019-02-10T11:56:58.226Z,10.00
2019-02-10T12:02:03.287Z,13.00
2019-02-10T12:07:09.323Z,13.00
2019-02-10T12:12:18.810Z,13.09
2019-02-10T12:17:26.436Z,14.57
2019-02-10T12:22:30.413Z,15.50
2019-02-10T12:27:38.667Z,14.71
2019-02-10T12:32:45.167Z,11.71
2019-02-10T12:37:55.251Z,14.67
2019-02-10T12:43:01.162Z,14.00
2019-02-10T12:48:05.637Z,10.67
2019-02-10T12:53:10.835Z,17.43
2019-02-10T12:58:18.013Z,12.00
2019-02-10T13:03:23.362Z,11.00
2019-02-10T13:08:28.698Z,10.86
2019-02-10T13:13:34.793Z,12.14
2019-02-10T13:18:39.393Z,13.00
2019-02-10T13:23:44.876Z,11.29
2019-02-10T13:28:51.886Z,13.56
2019-02-10T13:33:58.115Z,12.14
2019-02-10T13:39:05.759Z,12.25
2019-02-10T13:44:11.951Z,11.43
2019-02-10T13:49:17.238Z,13.00
2019-02-10T13:54:20.936Z,17.50
2019-02-10T13:59:24.501Z,17.00
2019-02-10T14:04:27.999Z,14.00
2019-02-10T14:09:34.065Z,13.86
2019-02-10T14:14:37.579Z,19.33
2019-02-10T14:19:41.652Z,19.00
2019-02-10T14:24:46.710Z,18.29
2019-02-10T14:29:50.935Z,21.75
2019-02-10T14:34:56.303Z,16.29
2019-02-10T14:39:59.655Z,19.00
2019-02-10T14:45:07.254Z,21.87
2019-02-10T14:50:13.146Z,20.00
2019-02-10T14:55:20.698Z,20.29
2019-02-10T15:00:26.113Z,21.57
2019-02-10T15:05:34.621Z,28.00
2019-02-10T15:10:41.913Z,36.50
2019-02-10T15:15:45.126Z,30.25
2019-02-10T15:20:53.067Z,32.63
2019-02-10T15:25:59.366Z,24.25
2019-02-10T15:31:04.870Z,27.71
2019-02-10T15:36:13.666Z,28.62
2019-02-10T15:41:22.198Z,27.13
2019-02-10T15:46:26.276Z,27.00
2019-02-10T15:51:36.927Z,25.75
2019-02-10T15:56:36.325Z,24.00
2019-02-10T16:01:43.869Z,20.71
2019-02-10T16:06:48.960Z,24.00
2019-02-10T16:11:57.555Z,26.50
2019-02-10T16:17:05.966Z,25.57
2019-02-10T16:22:14.763Z,24.00
2019-02-10T16:27:19.634Z,22.25
2019-02-10T16:32:27.861Z,27.25
2019-02-10T16:37:32.519Z,26.00
2019-02-10T16:42:40.918Z,34.75
2019-02-10T16:47:44.884Z,30.00
2019-02-10T16:52:55.947Z,32.17
2019-02-10T16:58:00.602Z,30.50
2019-02-10T17:03:04.784Z,25.25
2019-02-10T17:08:13.054Z,27.56
2019-02-10T17:13:20.516Z,31.00
2019-02-10T17:18:27.946Z,23.38
2019-02-10T17:23:33.352Z,30.00
2019-02-10T17:28:41.863Z,25.25
2019-02-10T17:33:51.175Z,26.37
2019-02-10T17:38:58.142Z,26.67
2019-02-10T17:44:05.262Z,26.56
2019-02-10T17:49:09.470Z,29.67
2019-02-10T17:54:15.389Z,23.75
2019-02-10T17:59:20.238Z,21.00
2019-02-10T18:04:26.139Z,22.25
2019-02-10T18:09:32.520Z,25.25
2019-02-10T18:14:37.098Z,26.00
2019-02-10T18:19:45.047Z,22.25
2019-02-10T18:24:53.118Z,25.75
2019-02-10T18:29:57.814Z,24.50
2019-02-10T18:35:04.587Z,26.00
2019-02-10T18:40:09.583Z,26.50
2019-02-10T18:45:18.170Z,30.37
2019-02-10T18:50:22.499Z,28.00
2019-02-10T18:55:28.536Z,32.88
2019-02-10T19:00:38.024Z,29.37
2019-02-10T19:05:42.287Z,29.00
2019-02-10T19:10:47.672Z,31.25
2019-02-10T19:15:56.735Z,26.75
2019-02-10T19:21:00.426Z,32.50
2019-02-10T19:26:06.699Z,31.37
2019-02-10T19:31:14.606Z,32.00
2019-02-10T19:36:19.011Z,30.00
2019-02-10T19:41:23.243Z,28.83
2019-02-10T19:46:32.152Z,32.88
2019-02-10T19:51:38.483Z,32.44
2019-02-10T19:56:45.219Z,30.75
2019-02-10T20:01:50.101Z,27.50
2019-02-10T20:06:56.822Z,30.25
2019-02-10T20:12:04.109Z,30.25
2019-02-10T20:17:07.714Z,31.00
2019-02-10T20:22:15.030Z,26.62
2019-02-10T20:27:22.575Z,30.00
2019-02-10T20:32:29.091Z,28.00
2019-02-10T20:37:42.572Z,34.08
2019-02-10T20:42:48.378Z,25.00
2019-02-10T20:47:57.295Z,30.25
2019-02-10T20:53:06.204Z,31.50
2019-02-10T20:58:15.226Z,28.87
2019-02-10T21:03:20.079Z,30.00
2019-02-10T21:08:28.406Z,28.75
2019-02-10T21:13:33.308Z,25.75
2019-02-10T21:18:41.600Z,28.00
2019-02-10T21:23:50.732Z,27.00
2019-02-10T21:28:59.825Z,28.38
2019-02-10T21:34:07.262Z,24.87
2019-02-10T21:39:16.188Z,28.75
2019-02-10T21:44:20.959Z,27.00
2019-02-10T21:49:29.299Z,30.12
2019-02-10T21:54:38.375Z,32.50
2019-02-10T21:59:42.948Z,29.50
2019-02-10T22:04:48.590Z,30.12
2019-02-10T22:09:57.710Z,30.12
2019-02-10T22:15:07.950Z,31.12
2019-02-10T22:20:16.490Z,31.37
2019-02-10T22:25:22.119Z,29.60
2019-02-10T22:30:27.852Z,33.13
2019-02-10T22:35:37.108Z,31.25
2019-02-10T22:40:41.294Z,30.33
2019-02-10T22:45:49.543Z,30.00
2019-02-10T22:50:57.477Z,31.50
2019-02-10T22:56:06.223Z,30.00
2019-02-10T23:01:15.105Z,27.00
2019-02-10T23:06:23.080Z,29.00
2019-02-10T23:11:30.392Z,28.50
2019-02-10T23:16:39.071Z,28.00
2019-02-10T23:21:45.424Z,26.00
2019-02-10T23:26:51.786Z,27.00
2019-02-10T23:32:00.644Z,28.12
2019-02-10T23:37:04.548Z,28.00
2019-02-10T23:42:12.824Z,27.00
2019-02-10T23:47:20.037Z,31.37
2019-02-10T23:52:26.504Z,30.00
2019-02-10T23:57:34.576Z,30.67
